KMGEKVPC

Guest
Details From KMGE - DOBBINS ARB
To KVPC - CARTERSVILLE
Flight Number -
Tags generated
Created
Modified
Stats Distance 21 nm / 38 km
Max Altitude 0 ft / 0 m
Waypoints 2
Social Downloads 0
Likes 0
Share VATSIM

Download

Looking for another format? Having issues loading an existing format? Contact us
Advertisement - Login to hide

Notes

Basic altitude profile: - Ascent Rate: 2500ft/min - Ascent Speed: 250kts - Cruise Altitude: 35000ft - Cruise Speed: 420kts - Descent Rate: 1500ft/min - Descent Speed: 250kts Options: - Use NATs: yes - Use PACOTS: yes - Use low airways: yes - Use high airways: yes

Route

KMGE KVPC

ID Type Via Altitude (ft/m) Position (lat/lon) Dist (leg/tot) Name
O KMGE APT - 0 / 0 33.91528 / -84.51635 - / 0 nm DOBBINS ARB
O KVPC APT - 0 / 0 34.12315 / -84.84871 20 / 20 nm CARTERSVILLE

Altitude Profile

Advertisement - Login to hide

KMGE

Details ICAO KMGE (MGE)
Name Dobbins ARB
Region United States
Timezone America/New_York (UTC-4.0)
Stats Elevation 1,066 ft / 325 m (AMSL)
Location 33.914400° -84.514200°
Runways 2
Magnetic Variation 5.264° W

METAR

KMGE 010656Z AUTO 32009G15KT 10SM CLR 07/02 A2984 RMK AO2 SLP106 T00730022 $

Decode

TAF

TAF KMGE 010500Z 0105/0211 33015G30KT 9999 BKN030 BKN200 QNH2981INS BECMG 0123/0124 34012G18KT 9999 FEW200 QNH2993INS BECMG 0204/0205 35006KT 9999 FEW250 QNH3003INS TX12/0120Z TN05/0112Z

Decode

Departure Runways

ID Width Length Bearing (true/mag) Surface Threshold Overrun Markings Lighting
11 300 ft / 91 m 10,009 ft / 3,051 m 106.30° / 111.57° CONCRETE 0 ft / 0 m 1,001 ft / 305 m PREC-APP EDGE THRESHOLD ALSF-I
11L 59 ft / 18 m 3,504 ft / 1,068 m 106.29° / 111.55° CONCRETE 0 ft / 0 m 0 ft / 0 m NONE EDGE THRESHOLD
29 300 ft / 91 m 10,009 ft / 3,051 m 286.32° / 291.58° CONCRETE 0 ft / 0 m 1,001 ft / 305 m PREC-APP EDGE THRESHOLD ALSF-II REIL-OMNI
29R 59 ft / 18 m 3,504 ft / 1,068 m 286.30° / 291.56° CONCRETE 0 ft / 0 m 0 ft / 0 m NONE EDGE THRESHOLD

KVPC

Details ICAO KVPC
Name CARTERSVILLE
Region United States
Timezone America/New_York (UTC-4.0)
Stats Elevation 759 ft / 231 m (AMSL)
Location 34.123100° -84.848700°
Runways 1
Magnetic Variation 5.062° W

METAR

KVPC 010653Z AUTO 00000KT 10SM CLR 08/02 A2987 RMK AO2 SLP110 T00780022

Decode

TAF

Not found

Destination Runways

ID Width Length Bearing (true/mag) Surface Threshold Overrun Markings Lighting
01 100 ft / 30 m 5,776 ft / 1,761 m 3.47° / 8.53° ASPHALT 740 ft / 226 m 0 ft / 0 m APP EDGE THRESHOLD
19 100 ft / 30 m 5,776 ft / 1,761 m 183.47° / 188.53° ASPHALT 0 ft / 0 m 0 ft / 0 m APP EDGE THRESHOLD REIL-OMNI

Approach Navaids

Runway Type Ident Frequency Range Bearing (true/mag) Slope Elevation
19 DME IVPC 110.35 MHz 18 nm / 33 km - - 759 ft / 231 m (AMSL)
19 LOC-LOC IVPC 110.35 MHz 18 nm / 33 km 183.47° / 188.53 ° - 759 ft / 231 m (AMSL)